createdAt,value
2022-10-07T00:00:30.285Z,104327.84
2022-10-07T00:01:32.502Z,111323.22
2022-10-07T00:02:34.803Z,107985.81
2022-10-07T00:03:37.362Z,106328.13
2022-10-07T00:04:45.152Z,111658.47
2022-10-07T00:05:47.416Z,106983.00
2022-10-07T00:06:49.555Z,105662.09
2022-10-07T00:07:51.724Z,107317.84
2022-10-07T00:08:54.207Z,103999.19
2022-10-07T00:09:56.361Z,106662.91
2022-10-07T00:11:04.628Z,105716.78
2022-10-07T00:12:06.812Z,111984.72
2022-10-07T00:13:12.036Z,104022.72
2022-10-07T00:14:14.550Z,109661.69
2022-10-07T00:15:17.079Z,114997.38
2022-10-07T00:16:24.454Z,111691.97
2022-10-07T00:17:26.700Z,112982.50
2022-10-07T00:18:28.854Z,111659.38
2022-10-07T00:19:31.830Z,116986.13
2022-10-07T00:20:40.429Z,114373.53
2022-10-07T00:21:42.640Z,116315.59
2022-10-07T00:22:44.769Z,115985.56
2022-10-07T00:23:47.955Z,109310.66
2022-10-07T00:24:50.127Z,112313.63
2022-10-07T00:25:52.259Z,109639.47
2022-10-07T00:26:54.385Z,111325.91
2022-10-07T00:27:59.540Z,116670.25
2022-10-07T00:29:03.485Z,118013.75
2022-10-07T00:30:06.064Z,117002.28
2022-10-07T00:31:12.185Z,116031.69
2022-10-07T00:32:14.440Z,121671.97
2022-10-07T00:33:16.575Z,123014.31
2022-10-07T00:34:20.292Z,121027.06
2022-10-07T00:35:22.417Z,119340.41
2022-10-07T00:36:33.137Z,118403.56
2022-10-07T00:37:36.158Z,127705.94
2022-10-07T00:38:38.969Z,123354.75
2022-10-07T00:39:42.683Z,125017.19
2022-10-07T00:40:44.777Z,124351.16
2022-10-07T00:41:50.419Z,124059.00
2022-10-07T00:42:52.637Z,124024.72
2022-10-07T00:43:55.484Z,124697.84
2022-10-07T00:44:57.606Z,130041.81
2022-10-07T00:46:12.643Z,124423.00
2022-10-07T00:47:33.826Z,136421.28
2022-10-07T00:48:37.232Z,137102.47
2022-10-07T00:49:45.913Z,127416.78
2022-10-07T00:50:50.843Z,134764.91
2022-10-07T00:51:53.181Z,129696.28
2022-10-07T00:53:01.693Z,122394.31
2022-10-07T00:54:07.977Z,127718.44
2022-10-07T00:55:15.282Z,118685.75
2022-10-07T00:56:17.920Z,121991.38
2022-10-07T00:57:23.988Z,122373.41
2022-10-07T00:58:26.812Z,119314.25
2022-10-07T00:59:28.968Z,121664.03
2022-10-07T01:00:31.271Z,124331.91
2022-10-07T01:01:33.949Z,126016.88
2022-10-07T01:02:36.308Z,127010.53
2022-10-07T01:03:39.266Z,124006.59
2022-10-07T01:04:43.000Z,125042.63
2022-10-07T01:05:45.160Z,129696.28
2022-10-07T01:07:12.435Z,123768.75
2022-10-07T01:08:18.300Z,135776.88
2022-10-07T01:09:21.526Z,137415.63
2022-10-07T01:10:28.418Z,135104.75
2022-10-07T01:11:39.341Z,129763.91
2022-10-07T01:12:51.459Z,136507.03
2022-10-07T01:14:12.781Z,138839.72
2022-10-07T01:15:30.162Z,141918.94
2022-10-07T01:17:02.939Z,141781.28
2022-10-07T01:18:22.946Z,148264.69
2022-10-07T01:20:10.032Z,142490.78
2022-10-07T01:21:18.823Z,147826.50
2022-10-07T01:22:21.010Z,146067.53
2022-10-07T01:23:49.491Z,144747.78
2022-10-07T01:25:13.407Z,147837.38
2022-10-07T01:26:42.029Z,148299.84
2022-10-07T01:27:51.365Z,148271.97
2022-10-07T01:29:02.549Z,148279.22
2022-10-07T01:30:07.683Z,148250.06
2022-10-07T01:31:16.887Z,148251.28
2022-10-07T01:32:32.482Z,148254.97
2022-10-07T01:33:39.809Z,148229.50
2022-10-07T01:34:43.808Z,148204.00
2022-10-07T01:35:49.617Z,148223.44
2022-10-07T01:36:55.615Z,148223.44
2022-10-07T01:38:01.522Z,148201.59
2022-10-07T01:39:11.345Z,145995.34
2022-10-07T01:40:17.997Z,148235.53
2022-10-07T01:41:21.630Z,148223.44
2022-10-07T01:42:26.213Z,148197.97
2022-10-07T01:43:28.388Z,148199.19
2022-10-07T01:44:32.852Z,148206.44
2022-10-07T01:45:40.528Z,148250.06
2022-10-07T01:46:43.537Z,148217.34
2022-10-07T01:47:46.694Z,148180.97
2022-10-07T01:48:49.252Z,148184.59
2022-10-07T01:49:52.687Z,148172.50
2022-10-07T01:50:57.079Z,148173.72
2022-10-07T01:52:24.019Z,148247.66
2022-10-07T01:53:51.573Z,148233.13
2022-10-07T01:55:31.725Z,148263.47
2022-10-07T01:56:46.017Z,148176.13
2022-10-07T01:57:59.455Z,148174.91
2022-10-07T01:59:17.616Z,148177.34
2022-10-07T02:00:19.932Z,148184.59
2022-10-07T02:01:30.370Z,148242.81
2022-10-07T02:02:54.238Z,148248.84
2022-10-07T02:04:33.601Z,148264.69
2022-10-07T02:05:53.966Z,148252.53
2022-10-07T02:07:03.995Z,148153.09
2022-10-07T02:08:12.799Z,148242.81
2022-10-07T02:09:31.497Z,148211.28
2022-10-07T02:10:42.568Z,148204.00
2022-10-07T02:11:47.135Z,148133.72
2022-10-07T02:12:55.561Z,148195.53
2022-10-07T02:14:23.214Z,148221.00
2022-10-07T02:15:33.271Z,148211.28
2022-10-07T02:16:44.635Z,148217.34
2022-10-07T02:17:51.681Z,148204.00
2022-10-07T02:18:54.032Z,148153.09
2022-10-07T02:19:56.651Z,148154.28
2022-10-07T02:21:02.151Z,148182.19
2022-10-07T02:22:05.759Z,148160.41
2022-10-07T02:23:10.566Z,148188.28
2022-10-07T02:24:15.469Z,148210.06
2022-10-07T02:25:21.063Z,148217.34
2022-10-07T02:26:26.184Z,148194.34
2022-10-07T02:27:33.597Z,148218.53
2022-10-07T02:28:40.265Z,148205.22
2022-10-07T02:29:44.344Z,148199.19
2022-10-07T02:30:50.196Z,148211.28
2022-10-07T02:31:53.685Z,148184.59
2022-10-07T02:33:00.789Z,148235.53
2022-10-07T02:34:07.611Z,148228.28
2022-10-07T02:35:32.093Z,148259.84
2022-10-07T02:36:38.265Z,148254.97
2022-10-07T02:37:44.483Z,148206.44
2022-10-07T02:38:47.093Z,148174.91
2022-10-07T02:39:49.661Z,148190.69
2022-10-07T02:41:12.666Z,148252.53
2022-10-07T02:42:31.584Z,148281.66
2022-10-07T02:43:46.417Z,148278.00
2022-10-07T02:45:02.201Z,148282.84
2022-10-07T02:46:19.026Z,148275.59
2022-10-07T02:47:45.230Z,148228.28
2022-10-07T02:48:58.781Z,148245.22
2022-10-07T02:50:05.607Z,148234.34
2022-10-07T02:51:20.001Z,148246.44
2022-10-07T02:52:24.437Z,148187.03
2022-10-07T02:53:29.823Z,148245.22
2022-10-07T02:54:40.129Z,148245.22
2022-10-07T02:55:44.467Z,148216.13
2022-10-07T02:56:48.736Z,148217.34
2022-10-07T02:57:56.198Z,148213.72
2022-10-07T02:59:02.005Z,148242.81
2022-10-07T03:00:10.734Z,148213.72
2022-10-07T03:01:23.427Z,148252.53
2022-10-07T03:02:39.575Z,148267.09
2022-10-07T03:03:42.423Z,148193.13
2022-10-07T03:04:44.561Z,148174.91
2022-10-07T03:05:48.292Z,148202.81
2022-10-07T03:06:51.345Z,148216.13
2022-10-07T03:07:59.267Z,148273.16
2022-10-07T03:09:02.293Z,148251.28
2022-10-07T03:10:07.723Z,148259.84
2022-10-07T03:11:10.289Z,148201.59
2022-10-07T03:12:12.465Z,148199.19
2022-10-07T03:13:15.637Z,148221.00
2022-10-07T03:14:24.701Z,148211.28
2022-10-07T03:15:27.482Z,148229.50
2022-10-07T03:16:30.550Z,148230.69
2022-10-07T03:17:33.006Z,148182.19
2022-10-07T03:18:35.208Z,148218.53
2022-10-07T03:19:53.600Z,148218.53
2022-10-07T03:20:57.772Z,148267.09
2022-10-07T03:21:59.972Z,148240.38
2022-10-07T03:23:03.445Z,148247.66
2022-10-07T03:24:05.731Z,148183.41
2022-10-07T03:25:14.771Z,148212.50
2022-10-07T03:26:19.265Z,148211.28
2022-10-07T03:27:22.695Z,148225.84
2022-10-07T03:28:27.110Z,148261.06
2022-10-07T03:29:32.735Z,148191.91
2022-10-07T03:30:34.907Z,148229.50
2022-10-07T03:31:38.038Z,148252.53
2022-10-07T03:32:41.445Z,148263.47
2022-10-07T03:33:45.629Z,148270.75
2022-10-07T03:34:47.897Z,148276.81
2022-10-07T03:35:50.105Z,148254.97
2022-10-07T03:36:52.571Z,148257.38
2022-10-07T03:37:54.777Z,148244.00
2022-10-07T03:38:58.154Z,148259.84
2022-10-07T03:40:00.651Z,148264.69
2022-10-07T03:41:04.581Z,148211.28
2022-10-07T03:42:07.001Z,148213.72
2022-10-07T03:43:09.370Z,148247.66
2022-10-07T03:44:11.791Z,148229.50
2022-10-07T03:45:14.385Z,148270.75
2022-10-07T03:46:18.520Z,148264.69
2022-10-07T03:47:21.723Z,148267.09
2022-10-07T03:48:24.587Z,148264.69
2022-10-07T03:49:27.544Z,148264.69
2022-10-07T03:50:30.340Z,148259.84
2022-10-07T03:51:32.746Z,148253.75
2022-10-07T03:52:36.851Z,148244.00
2022-10-07T03:53:40.127Z,148237.97
2022-10-07T03:54:43.033Z,148225.84
2022-10-07T03:55:45.937Z,148239.19
2022-10-07T03:56:48.176Z,148218.53
2022-10-07T03:57:51.290Z,148221.00
2022-10-07T03:58:55.922Z,148233.13
2022-10-07T03:59:59.459Z,148204.00
2022-10-07T04:01:14.975Z,148310.75
2022-10-07T04:02:23.393Z,148214.91
2022-10-07T04:03:25.963Z,148216.13
2022-10-07T04:04:28.218Z,148223.44
2022-10-07T04:05:30.945Z,148214.91
2022-10-07T04:06:34.331Z,148230.69
2022-10-07T04:07:40.752Z,148197.97
2022-10-07T04:08:44.842Z,148189.50
2022-10-07T04:09:47.223Z,148194.34
2022-10-07T04:10:49.374Z,148187.03
2022-10-07T04:11:51.532Z,148166.44
2022-10-07T04:12:53.854Z,148148.25
2022-10-07T04:13:59.283Z,148161.59
2022-10-07T04:15:01.999Z,148157.97
2022-10-07T04:16:08.091Z,148201.59
2022-10-07T04:17:10.740Z,148145.81
2022-10-07T04:18:12.879Z,148155.56
2022-10-07T04:19:15.026Z,148167.66
2022-10-07T04:20:17.986Z,148157.97
2022-10-07T04:21:21.083Z,148148.25
2022-10-07T04:22:23.797Z,148127.66
2022-10-07T04:23:26.235Z,148131.31
2022-10-07T04:24:28.356Z,148136.16
2022-10-07T04:25:33.512Z,148136.16
2022-10-07T04:26:38.837Z,148111.88
2022-10-07T04:27:51.569Z,148145.81
2022-10-07T04:28:54.899Z,148131.31
2022-10-07T04:29:58.446Z,148142.19
2022-10-07T04:31:04.015Z,148204.00
2022-10-07T04:32:09.997Z,148138.56
2022-10-07T04:33:13.397Z,148109.47
2022-10-07T04:34:15.614Z,148121.56
2022-10-07T04:35:19.606Z,148159.19
2022-10-07T04:36:21.880Z,148120.34
2022-10-07T04:37:57.064Z,148235.53
2022-10-07T04:39:01.702Z,148148.25
2022-10-07T04:40:11.557Z,148168.88
2022-10-07T04:41:13.857Z,148148.25
2022-10-07T04:42:34.648Z,148150.66
2022-10-07T04:43:36.797Z,148156.75
2022-10-07T04:44:44.666Z,148136.16
2022-10-07T04:45:48.777Z,148134.94
2022-10-07T04:46:52.089Z,148099.78
2022-10-07T04:47:54.381Z,148109.47
2022-10-07T04:48:56.546Z,148099.78
2022-10-07T04:50:02.646Z,148149.44
2022-10-07T04:51:07.878Z,148174.91
2022-10-07T04:52:10.706Z,148051.28
2022-10-07T04:53:16.537Z,148128.88
2022-10-07T04:54:21.743Z,148140.97
2022-10-07T04:55:28.297Z,148126.47
2022-10-07T04:56:31.382Z,148109.47
2022-10-07T04:57:34.866Z,148134.94
2022-10-07T04:58:37.644Z,148145.81
2022-10-07T04:59:43.024Z,148111.88
2022-10-07T05:00:49.697Z,148178.56
2022-10-07T05:01:53.820Z,148120.34
2022-10-07T05:02:56.875Z,148090.09
2022-10-07T05:03:59.708Z,148127.66
2022-10-07T05:05:03.137Z,148121.56
2022-10-07T05:06:06.302Z,148120.34
2022-10-07T05:07:10.511Z,148138.56
2022-10-07T05:08:15.107Z,148138.56
2022-10-07T05:09:17.490Z,148126.47
2022-10-07T05:10:22.253Z,148148.25
2022-10-07T05:11:25.925Z,148128.88
2022-10-07T05:12:41.486Z,148151.88
2022-10-07T05:13:43.674Z,148134.94
2022-10-07T05:14:46.649Z,148151.88
2022-10-07T05:15:53.550Z,148215.53
2022-10-07T05:16:55.853Z,148167.66
2022-10-07T05:18:01.401Z,148162.81
2022-10-07T05:19:03.792Z,148171.28
2022-10-07T05:20:07.295Z,148182.19
2022-10-07T05:21:09.477Z,148162.81
2022-10-07T05:22:15.521Z,148171.28
2022-10-07T05:23:23.293Z,148231.91
2022-10-07T05:24:30.337Z,148189.50
2022-10-07T05:25:32.498Z,148223.44
2022-10-07T05:26:35.263Z,148188.28
2022-10-07T05:27:40.278Z,148189.50
2022-10-07T05:28:44.487Z,148222.22
2022-10-07T05:29:48.918Z,148248.84
2022-10-07T05:31:01.070Z,148332.59
2022-10-07T05:32:05.189Z,148271.97
2022-10-07T05:33:09.963Z,148247.66
2022-10-07T05:34:14.971Z,148262.28
2022-10-07T05:35:17.398Z,148262.28
2022-10-07T05:36:22.416Z,148235.53
2022-10-07T05:37:25.687Z,148259.84
2022-10-07T05:38:28.849Z,148235.53
2022-10-07T05:39:31.464Z,148240.38
2022-10-07T05:40:40.907Z,148212.50
2022-10-07T05:41:45.618Z,148187.03
2022-10-07T05:42:49.891Z,148162.81
2022-10-07T05:43:52.276Z,148231.91
2022-10-07T05:44:54.449Z,148233.13
2022-10-07T05:46:01.800Z,148264.69
2022-10-07T05:47:05.888Z,148262.28
2022-10-07T05:48:08.020Z,148240.38
2022-10-07T05:49:10.207Z,148216.13
2022-10-07T05:50:12.520Z,148227.06
2022-10-07T05:51:14.977Z,148256.16
2022-10-07T05:52:17.213Z,148230.69
2022-10-07T05:53:20.498Z,148213.72
2022-10-07T05:54:22.581Z,148244.00
2022-10-07T05:55:24.883Z,148167.66
2022-10-07T05:56:27.161Z,148221.00
2022-10-07T05:57:30.774Z,148229.50
2022-10-07T05:58:36.114Z,148235.53
2022-10-07T05:59:38.419Z,148270.75
2022-10-07T06:00:42.479Z,148261.06
2022-10-07T06:01:44.670Z,148296.22
2022-10-07T06:02:51.977Z,148228.28
2022-10-07T06:03:59.621Z,148298.63
2022-10-07T06:05:05.389Z,148262.28
2022-10-07T06:06:09.009Z,148290.16
2022-10-07T06:07:11.710Z,148298.63
2022-10-07T06:08:14.523Z,148276.81
2022-10-07T06:09:35.272Z,148319.28
2022-10-07T06:11:07.475Z,148326.53
2022-10-07T06:12:28.915Z,148337.44
2022-10-07T06:13:32.415Z,148315.59
2022-10-07T06:14:35.411Z,148332.59
2022-10-07T06:15:37.713Z,148378.66
2022-10-07T06:16:40.875Z,148347.13
2022-10-07T06:17:44.677Z,148371.38
2022-10-07T06:18:50.596Z,148366.53
2022-10-07T06:19:53.503Z,148366.53
2022-10-07T06:21:00.300Z,148388.41
2022-10-07T06:22:04.851Z,148451.47
2022-10-07T06:23:09.126Z,148416.31
2022-10-07T06:24:11.253Z,148451.47
2022-10-07T06:25:13.451Z,148429.63
2022-10-07T06:26:15.651Z,148478.13
2022-10-07T06:27:17.876Z,148521.84
2022-10-07T06:28:20.740Z,148495.13
2022-10-07T06:29:23.318Z,148531.53
2022-10-07T06:30:25.783Z,148599.53
2022-10-07T06:31:28.662Z,148638.34
2022-10-07T06:32:35.541Z,148604.38
2022-10-07T06:33:39.045Z,148729.41
2022-10-07T06:34:41.213Z,148776.78
2022-10-07T06:35:45.540Z,148853.31
2022-10-07T06:36:47.910Z,148765.81
2022-10-07T06:37:51.253Z,148871.50
2022-10-07T06:38:55.148Z,148894.59
2022-10-07T06:40:02.032Z,148793.75
2022-10-07T06:41:07.122Z,148781.63
2022-10-07T06:42:10.497Z,148803.44
2022-10-07T06:43:35.159Z,148803.44
2022-10-07T06:44:40.774Z,148866.66
2022-10-07T06:45:45.996Z,148895.81
2022-10-07T06:46:49.385Z,148984.50
2022-10-07T06:47:54.143Z,149200.81
2022-10-07T06:48:58.252Z,149170.47
2022-10-07T06:50:00.897Z,149146.16
2022-10-07T06:51:03.699Z,149178.97
2022-10-07T06:52:07.637Z,149121.81
2022-10-07T06:53:10.563Z,149257.94
2022-10-07T06:54:12.746Z,149189.88
2022-10-07T06:55:15.009Z,149313.91
2022-10-07T06:56:17.753Z,149392.97
2022-10-07T06:57:44.319Z,149402.72
2022-10-07T06:58:43.515Z,149455.00
2022-10-07T06:59:48.112Z,149510.97
2022-10-07T07:00:52.205Z,149456.22
2022-10-07T07:01:56.816Z,149416.06
2022-10-07T07:03:01.418Z,149279.84
2022-10-07T07:04:03.940Z,149257.94
2022-10-07T07:05:08.497Z,149294.41
2022-10-07T07:06:11.317Z,149407.56
2022-10-07T07:07:13.528Z,149506.09
2022-10-07T07:08:18.860Z,149328.47
2022-10-07T07:09:22.792Z,149437.97
2022-10-07T07:10:27.217Z,149609.56
2022-10-07T07:11:40.403Z,149691.06
2022-10-07T07:13:09.671Z,149630.25
2022-10-07T07:14:13.594Z,149507.31
2022-10-07T07:15:19.224Z,149659.41
2022-10-07T07:16:21.691Z,149723.91
2022-10-07T07:17:23.958Z,149625.34
2022-10-07T07:18:26.379Z,149698.41
2022-10-07T07:19:28.735Z,149801.91
2022-10-07T07:20:37.447Z,149892.00
2022-10-07T07:21:41.033Z,149783.63
2022-10-07T07:22:45.883Z,149818.91
2022-10-07T07:23:48.484Z,149911.47
2022-10-07T07:24:50.732Z,149864.00
2022-10-07T07:25:52.829Z,149817.69
2022-10-07T07:26:55.054Z,149978.44
2022-10-07T07:28:02.520Z,150002.84
2022-10-07T07:29:06.420Z,149976.00
2022-10-07T07:30:14.398Z,150034.53
2022-10-07T07:31:17.905Z,149878.59
2022-10-07T07:32:20.109Z,149974.78
2022-10-07T07:33:22.709Z,150041.81
2022-10-07T07:34:24.889Z,150229.50
2022-10-07T07:35:31.860Z,150236.81
2022-10-07T07:36:36.145Z,150253.91
2022-10-07T07:37:38.410Z,150261.19
2022-10-07T07:38:40.531Z,149873.72
2022-10-07T07:39:43.019Z,149980.88
2022-10-07T07:40:48.537Z,150078.34
2022-10-07T07:41:51.031Z,150230.72
2022-10-07T07:42:55.670Z,150246.53
2022-10-07T07:44:00.890Z,150363.56
2022-10-07T07:45:03.705Z,150158.78
2022-10-07T07:46:07.577Z,150173.41
2022-10-07T07:47:09.889Z,150336.75
2022-10-07T07:48:13.443Z,150508.69
2022-10-07T07:49:16.545Z,150392.88
2022-10-07T07:50:27.014Z,150339.19
2022-10-07T07:51:30.840Z,150398.97
2022-10-07T07:52:33.685Z,150467.25
2022-10-07T07:53:37.939Z,150478.19
2022-10-07T07:54:41.946Z,150334.31
2022-10-07T07:55:57.020Z,150466.03
2022-10-07T07:57:00.780Z,149943.13
2022-10-07T07:58:09.643Z,150091.78
2022-10-07T07:59:13.912Z,150278.22
2022-10-07T08:00:16.733Z,150295.31
2022-10-07T08:01:33.101Z,150195.38
2022-10-07T08:02:35.311Z,150066.19
2022-10-07T08:03:38.012Z,150051.56
2022-10-07T08:04:41.344Z,150281.88
2022-10-07T08:05:44.344Z,150380.66
2022-10-07T08:06:46.678Z,150394.09
2022-10-07T08:07:49.167Z,150516.03
2022-10-07T08:08:52.683Z,150520.91
2022-10-07T08:09:54.911Z,150706.31
2022-10-07T08:10:58.057Z,150884.53
2022-10-07T08:12:00.562Z,150692.91
2022-10-07T08:13:02.856Z,150819.88
2022-10-07T08:14:07.893Z,150746.66
2022-10-07T08:15:10.881Z,150563.59
2022-10-07T08:16:16.629Z,150483.13
2022-10-07T08:17:19.862Z,150479.41
2022-10-07T08:18:22.181Z,150373.31
2022-10-07T08:19:24.547Z,150568.50
2022-10-07T08:20:27.436Z,150617.31
2022-10-07T08:21:33.158Z,150724.66
2022-10-07T08:22:36.381Z,150607.50
2022-10-07T08:23:39.886Z,150544.03
2022-10-07T08:24:43.108Z,150736.81
2022-10-07T08:25:45.305Z,150788.13
2022-10-07T08:26:47.818Z,150564.84
2022-10-07T08:27:50.543Z,150523.34
2022-10-07T08:28:52.908Z,150638.00
2022-10-07T08:29:55.392Z,150674.59
2022-10-07T08:31:06.900Z,150597.78
2022-10-07T08:32:09.117Z,150585.59
2022-10-07T08:33:11.284Z,150441.63
2022-10-07T08:34:13.534Z,150412.34
2022-10-07T08:35:15.780Z,150508.69
2022-10-07T08:36:21.550Z,150634.34
2022-10-07T08:37:23.691Z,150597.78
2022-10-07T08:38:29.915Z,150539.19
2022-10-07T08:39:32.125Z,150548.97
2022-10-07T08:40:35.085Z,150740.47
2022-10-07T08:41:40.122Z,150614.88
2022-10-07T08:42:43.994Z,150392.88
2022-10-07T08:43:50.888Z,150341.63
2022-10-07T08:44:53.890Z,150506.25
2022-10-07T08:45:56.157Z,150642.88
2022-10-07T08:47:34.669Z,150545.25
2022-10-07T08:48:38.793Z,150468.47
2022-10-07T08:49:54.511Z,150612.38
2022-10-07T08:51:09.874Z,150597.78
2022-10-07T08:52:22.383Z,150784.47
2022-10-07T08:53:34.099Z,150702.66
2022-10-07T08:54:36.205Z,150889.44
2022-10-07T08:55:45.807Z,151122.69
2022-10-07T08:56:49.443Z,151308.41
2022-10-07T08:57:51.555Z,151247.28
2022-10-07T08:59:09.554Z,151213.06
2022-10-07T09:00:17.584Z,151100.69
2022-10-07T09:01:38.242Z,151375.59
2022-10-07T09:02:49.410Z,151347.47
2022-10-07T09:04:05.784Z,151120.25
2022-10-07T09:05:28.010Z,151428.16
2022-10-07T09:06:37.374Z,151462.34
2022-10-07T09:07:48.215Z,151237.47
2022-10-07T09:08:58.130Z,151137.31
2022-10-07T09:10:09.249Z,151271.75
2022-10-07T09:11:20.121Z,151214.28
2022-10-07T09:12:34.732Z,150995.66
2022-10-07T09:13:40.381Z,151139.81
2022-10-07T09:14:48.209Z,151122.69
2022-10-07T09:16:00.555Z,151059.13
2022-10-07T09:17:16.085Z,151227.72
2022-10-07T09:18:38.509Z,151133.66
2022-10-07T09:19:55.170Z,151291.28
2022-10-07T09:20:58.167Z,151398.78
2022-10-07T09:22:17.422Z,151568.78
2022-10-07T09:23:23.853Z,151332.78
2022-10-07T09:24:29.038Z,151156.88
2022-10-07T09:25:31.594Z,151020.09
2022-10-07T09:26:33.713Z,151005.41
2022-10-07T09:27:35.805Z,151093.38
2022-10-07T09:28:38.114Z,151016.44
2022-10-07T09:29:40.394Z,150869.88
2022-10-07T09:30:43.410Z,150869.88
2022-10-07T09:31:45.618Z,150962.69
2022-10-07T09:32:50.774Z,151086.00
2022-10-07T09:33:54.307Z,150941.97
2022-10-07T09:34:56.728Z,151181.31
2022-10-07T09:36:07.294Z,151403.69
2022-10-07T09:37:24.081Z,151574.88
2022-10-07T09:38:49.227Z,151640.88
2022-10-07T09:39:53.329Z,151467.25
2022-10-07T09:41:16.623Z,151441.63
2022-10-07T09:42:33.560Z,150944.41
2022-10-07T09:43:36.364Z,150990.78
2022-10-07T09:44:40.102Z,150902.84
2022-10-07T09:45:46.912Z,151082.34
2022-10-07T09:46:53.645Z,151254.63
2022-10-07T09:47:58.596Z,151098.25
2022-10-07T09:49:04.447Z,151166.63
2022-10-07T09:50:32.539Z,151320.59
2022-10-07T09:51:35.419Z,151398.78
2022-10-07T09:52:37.560Z,151412.28
2022-10-07T09:54:01.897Z,151007.91
2022-10-07T09:55:32.323Z,151149.56
2022-10-07T09:56:41.803Z,151296.16
2022-10-07T09:57:44.283Z,150920.00
2022-10-07T09:58:46.881Z,150918.78
2022-10-07T09:59:49.025Z,150978.59
2022-10-07T10:00:53.824Z,151181.31
2022-10-07T10:02:02.869Z,151197.16
2022-10-07T10:03:07.648Z,151066.47
2022-10-07T10:04:23.443Z,151002.97
2022-10-07T10:05:31.626Z,151130.00
2022-10-07T10:06:33.838Z,151320.59
2022-10-07T10:07:37.440Z,151250.97
2022-10-07T10:08:43.274Z,151166.63
2022-10-07T10:09:50.567Z,151288.84
2022-10-07T10:10:58.961Z,151497.78
2022-10-07T10:12:13.578Z,151415.94
2022-10-07T10:13:42.701Z,151364.56
2022-10-07T10:15:01.425Z,151286.41
2022-10-07T10:16:06.429Z,151038.38
2022-10-07T10:17:28.376Z,151015.22
2022-10-07T10:18:39.644Z,151127.56
2022-10-07T10:19:41.773Z,151200.81
2022-10-07T10:20:44.817Z,151237.47
2022-10-07T10:21:56.174Z,151420.81
2022-10-07T10:23:02.121Z,151364.56
2022-10-07T10:24:10.348Z,151518.59
2022-10-07T10:25:32.381Z,151584.63
2022-10-07T10:26:43.507Z,151486.81
2022-10-07T10:28:04.747Z,151914.88
2022-10-07T10:29:37.222Z,152086.19
2022-10-07T10:30:52.283Z,152039.72
2022-10-07T10:32:13.160Z,152020.13
2022-10-07T10:33:35.808Z,151750.94
2022-10-07T10:35:00.320Z,151567.50
2022-10-07T10:36:16.135Z,151513.72
2022-10-07T10:37:21.716Z,151525.91
2022-10-07T10:38:50.109Z,151599.28
2022-10-07T10:40:07.349Z,151766.88
2022-10-07T10:41:24.149Z,151742.41
2022-10-07T10:43:04.696Z,151755.84
2022-10-07T10:44:22.874Z,151699.56
2022-10-07T10:45:46.747Z,151834.13
2022-10-07T10:47:01.179Z,151706.91
2022-10-07T10:48:21.617Z,151605.44
2022-10-07T10:49:37.987Z,151554.03
2022-10-07T10:50:55.269Z,151475.84
2022-10-07T10:52:03.489Z,151349.91
2022-10-07T10:53:42.062Z,151408.56
2022-10-07T10:55:26.280Z,151429.38
2022-10-07T10:56:52.357Z,151521.03
2022-10-07T10:58:25.598Z,151543.03
2022-10-07T10:59:41.237Z,151269.28
2022-10-07T11:01:21.068Z,151643.31
2022-10-07T11:02:38.391Z,151757.06
2022-10-07T11:04:04.608Z,151857.31
2022-10-07T11:05:25.133Z,151827.97
2022-10-07T11:06:30.823Z,151780.31
2022-10-07T11:07:37.403Z,151868.38
2022-10-07T11:08:39.887Z,151900.22
2022-10-07T11:09:48.629Z,151925.88
2022-10-07T11:11:02.076Z,151660.41
2022-10-07T11:12:16.237Z,151574.88
2022-10-07T11:13:28.708Z,151848.78
2022-10-07T11:14:34.974Z,151709.34
2022-10-07T11:15:44.672Z,151899.00
2022-10-07T11:16:55.315Z,152013.97
2022-10-07T11:18:00.842Z,151848.78
2022-10-07T11:19:20.835Z,151711.78
2022-10-07T11:20:33.142Z,151985.81
2022-10-07T11:21:40.105Z,151878.19
2022-10-07T11:22:57.026Z,151831.69
2022-10-07T11:24:10.833Z,152067.84
2022-10-07T11:25:28.871Z,151704.47
2022-10-07T11:26:37.540Z,151623.75
2022-10-07T11:27:42.866Z,151698.31
2022-10-07T11:28:46.449Z,151447.72
2022-10-07T11:29:57.609Z,151697.09
2022-10-07T11:31:05.739Z,151820.66
2022-10-07T11:32:13.809Z,151903.88
2022-10-07T11:33:28.627Z,151980.94
2022-10-07T11:34:43.860Z,151716.66
2022-10-07T11:35:57.934Z,151943.00
2022-10-07T11:37:19.582Z,151900.22
2022-10-07T11:38:27.048Z,151831.69
2022-10-07T11:39:30.032Z,151911.22
2022-10-07T11:40:34.793Z,151607.88
2022-10-07T11:42:02.004Z,151551.59
2022-10-07T11:43:16.230Z,151688.53
2022-10-07T11:44:28.782Z,151819.41
2022-10-07T11:45:38.109Z,151733.84
2022-10-07T11:46:43.253Z,151281.50
2022-10-07T11:47:50.596Z,151318.16
2022-10-07T11:49:00.813Z,151133.66
2022-10-07T11:50:10.704Z,151391.44
2022-10-07T11:51:24.701Z,151258.28
2022-10-07T11:52:37.133Z,151323.03
2022-10-07T11:53:40.662Z,151305.97
2022-10-07T11:54:55.848Z,151345.03
2022-10-07T11:56:22.910Z,151354.81
2022-10-07T11:57:31.316Z,151261.94
2022-10-07T11:58:37.614Z,151390.22
2022-10-07T11:59:51.681Z,151525.91
2022-10-07T12:01:25.745Z,151637.22
2022-10-07T12:02:28.086Z,151587.06
2022-10-07T12:03:33.619Z,151457.47
2022-10-07T12:04:38.248Z,151566.22
2022-10-07T12:05:40.337Z,151279.06
2022-10-07T12:07:19.884Z,151166.63
2022-10-07T12:08:32.093Z,151176.44
2022-10-07T12:09:56.323Z,151329.13
2022-10-07T12:11:16.626Z,151293.72
2022-10-07T12:12:23.324Z,151285.16
2022-10-07T12:13:46.596Z,151359.69
2022-10-07T12:15:00.701Z,151400.00
2022-10-07T12:16:25.702Z,151288.84
2022-10-07T12:17:30.073Z,151100.69
2022-10-07T12:18:32.168Z,151116.59
2022-10-07T12:19:40.680Z,151071.34
2022-10-07T12:20:52.927Z,151122.69
2022-10-07T12:22:04.147Z,151105.56
2022-10-07T12:23:28.458Z,150905.28
2022-10-07T12:24:45.923Z,150744.22
2022-10-07T12:26:02.919Z,150876.03
2022-10-07T12:27:17.726Z,150968.78
2022-10-07T12:28:35.143Z,151170.28
2022-10-07T12:30:02.513Z,151141.03
2022-10-07T12:31:26.399Z,151075.03
2022-10-07T12:32:52.037Z,151213.06
2022-10-07T12:34:04.370Z,151257.06
2022-10-07T12:35:42.521Z,151354.81
2022-10-07T12:36:44.704Z,151316.94
2022-10-07T12:37:50.182Z,151242.38
2022-10-07T12:38:59.054Z,151533.25
2022-10-07T12:40:11.714Z,151496.56
2022-10-07T12:41:25.828Z,151365.78
2022-10-07T12:42:29.702Z,151071.34
2022-10-07T12:43:49.767Z,151175.22
2022-10-07T12:44:52.837Z,151178.88
2022-10-07T12:45:56.291Z,151049.38
2022-10-07T12:47:05.427Z,151120.25
2022-10-07T12:48:16.515Z,151354.81
2022-10-07T12:49:50.269Z,151379.25
2022-10-07T12:50:57.006Z,151446.50
2022-10-07T12:52:12.063Z,151345.03
2022-10-07T12:53:14.366Z,151288.84
2022-10-07T12:54:20.462Z,151171.50
2022-10-07T12:55:37.132Z,151115.38
2022-10-07T12:56:42.902Z,151086.00